sensor_id;sensor_type;location;lat;lon;timestamp;P1;durP1;ratioP1;P2;durP2;ratioP2
26303;SDS011;70693;48.680;8.890;2024-01-10T00:01:17;13.52;;;7.50;;
26303;SDS011;70693;48.680;8.890;2024-01-10T00:03:43;12.60;;;8.15;;
26303;SDS011;70693;48.680;8.890;2024-01-10T00:06:10;12.07;;;7.80;;
26303;SDS011;70693;48.680;8.890;2024-01-10T00:08:36;13.02;;;8.18;;
26303;SDS011;70693;48.680;8.890;2024-01-10T00:11:02;12.90;;;8.05;;
26303;SDS011;70693;48.680;8.890;2024-01-10T00:13:28;12.82;;;7.60;;
26303;SDS011;70693;48.680;8.890;2024-01-10T00:15:54;12.07;;;7.82;;
26303;SDS011;70693;48.680;8.890;2024-01-10T00:18:20;12.70;;;7.55;;
26303;SDS011;70693;48.680;8.890;2024-01-10T00:20:46;11.27;;;7.80;;
26303;SDS011;70693;48.680;8.890;2024-01-10T00:23:12;12.95;;;7.68;;
26303;SDS011;70693;48.680;8.890;2024-01-10T00:25:38;12.25;;;7.93;;
26303;SDS011;70693;48.680;8.890;2024-01-10T00:28:04;14.20;;;8.25;;
26303;SDS011;70693;48.680;8.890;2024-01-10T00:30:30;14.00;;;8.10;;
26303;SDS011;70693;48.680;8.890;2024-01-10T00:32:56;13.30;;;8.20;;
26303;SDS011;70693;48.680;8.890;2024-01-10T00:35:22;14.65;;;8.05;;
26303;SDS011;70693;48.680;8.890;2024-01-10T00:37:47;13.13;;;8.13;;
26303;SDS011;70693;48.680;8.890;2024-01-10T00:40:13;15.70;;;7.63;;
26303;SDS011;70693;48.680;8.890;2024-01-10T00:42:38;13.60;;;8.32;;
26303;SDS011;70693;48.680;8.890;2024-01-10T00:45:04;12.38;;;7.93;;
26303;SDS011;70693;48.680;8.890;2024-01-10T00:47:30;12.43;;;6.82;;
26303;SDS011;70693;48.680;8.890;2024-01-10T00:49:56;12.32;;;7.70;;
26303;SDS011;70693;48.680;8.890;2024-01-10T00:52:21;13.90;;;8.15;;
26303;SDS011;70693;48.680;8.890;2024-01-10T00:54:47;13.98;;;8.32;;
26303;SDS011;70693;48.680;8.890;2024-01-10T00:57:13;11.38;;;7.25;;
26303;SDS011;70693;48.680;8.890;2024-01-10T00:59:39;12.52;;;7.80;;
26303;SDS011;70693;48.680;8.890;2024-01-10T01:02:05;14.27;;;7.68;;
26303;SDS011;70693;48.680;8.890;2024-01-10T01:04:31;10.82;;;6.97;;
26303;SDS011;70693;48.680;8.890;2024-01-10T01:06:56;11.68;;;7.28;;
26303;SDS011;70693;48.680;8.890;2024-01-10T01:09:22;10.57;;;7.00;;
26303;SDS011;70693;48.680;8.890;2024-01-10T01:11:47;12.13;;;7.65;;
26303;SDS011;70693;48.680;8.890;2024-01-10T01:14:13;12.38;;;7.47;;
26303;SDS011;70693;48.680;8.890;2024-01-10T01:16:39;13.77;;;7.57;;
26303;SDS011;70693;48.680;8.890;2024-01-10T01:19:04;11.15;;;7.25;;
26303;SDS011;70693;48.680;8.890;2024-01-10T01:21:30;12.57;;;7.63;;
26303;SDS011;70693;48.680;8.890;2024-01-10T01:23:55;11.32;;;7.15;;
26303;SDS011;70693;48.680;8.890;2024-01-10T01:26:21;12.57;;;7.22;;
26303;SDS011;70693;48.680;8.890;2024-01-10T01:28:47;11.80;;;7.40;;
26303;SDS011;70693;48.680;8.890;2024-01-10T01:31:12;12.82;;;7.50;;
26303;SDS011;70693;48.680;8.890;2024-01-10T01:33:38;11.15;;;6.93;;
26303;SDS011;70693;48.680;8.890;2024-01-10T01:36:04;10.70;;;7.15;;
26303;SDS011;70693;48.680;8.890;2024-01-10T01:38:31;10.80;;;7.18;;
26303;SDS011;70693;48.680;8.890;2024-01-10T01:40:57;10.70;;;7.07;;
26303;SDS011;70693;48.680;8.890;2024-01-10T01:43:26;10.38;;;6.82;;
26303;SDS011;70693;48.680;8.890;2024-01-10T01:45:52;10.93;;;7.30;;
26303;SDS011;70693;48.680;8.890;2024-01-10T01:48:19;10.85;;;6.55;;
26303;SDS011;70693;48.680;8.890;2024-01-10T01:50:46;10.65;;;6.45;;
26303;SDS011;70693;48.680;8.890;2024-01-10T01:53:14;12.35;;;6.97;;
26303;SDS011;70693;48.680;8.890;2024-01-10T01:55:40;12.57;;;6.68;;
26303;SDS011;70693;48.680;8.890;2024-01-10T01:58:08;13.50;;;7.60;;
26303;SDS011;70693;48.680;8.890;2024-01-10T02:00:35;11.48;;;7.15;;
26303;SDS011;70693;48.680;8.890;2024-01-10T02:03:02;11.63;;;6.97;;
26303;SDS011;70693;48.680;8.890;2024-01-10T02:05:28;12.88;;;7.25;;
26303;SDS011;70693;48.680;8.890;2024-01-10T02:07:53;11.40;;;7.22;;
26303;SDS011;70693;48.680;8.890;2024-01-10T02:10:20;11.32;;;6.60;;
26303;SDS011;70693;48.680;8.890;2024-01-10T02:12:46;12.30;;;7.28;;
26303;SDS011;70693;48.680;8.890;2024-01-10T02:15:12;11.95;;;6.90;;
26303;SDS011;70693;48.680;8.890;2024-01-10T02:17:39;13.70;;;7.30;;
26303;SDS011;70693;48.680;8.890;2024-01-10T02:20:09;12.45;;;7.53;;
26303;SDS011;70693;48.680;8.890;2024-01-10T02:22:34;13.68;;;7.10;;
26303;SDS011;70693;48.680;8.890;2024-01-10T02:25:00;13.13;;;7.43;;
26303;SDS011;70693;48.680;8.890;2024-01-10T02:27:25;12.15;;;6.85;;
26303;SDS011;70693;48.680;8.890;2024-01-10T02:29:52;12.43;;;7.25;;
26303;SDS011;70693;48.680;8.890;2024-01-10T02:32:19;13.25;;;7.03;;
26303;SDS011;70693;48.680;8.890;2024-01-10T02:34:44;12.35;;;7.22;;
26303;SDS011;70693;48.680;8.890;2024-01-10T02:37:10;12.85;;;7.70;;
26303;SDS011;70693;48.680;8.890;2024-01-10T02:39:36;12.00;;;7.32;;
26303;SDS011;70693;48.680;8.890;2024-01-10T02:42:01;12.68;;;6.82;;
26303;SDS011;70693;48.680;8.890;2024-01-10T02:44:27;14.32;;;7.30;;
26303;SDS011;70693;48.680;8.890;2024-01-10T02:46:53;11.05;;;7.25;;
26303;SDS011;70693;48.680;8.890;2024-01-10T02:49:18;13.23;;;7.57;;
26303;SDS011;70693;48.680;8.890;2024-01-10T02:51:44;12.38;;;7.05;;
26303;SDS011;70693;48.680;8.890;2024-01-10T02:54:10;11.85;;;6.80;;
26303;SDS011;70693;48.680;8.890;2024-01-10T02:56:36;14.13;;;7.45;;
26303;SDS011;70693;48.680;8.890;2024-01-10T02:59:01;15.57;;;7.40;;
26303;SDS011;70693;48.680;8.890;2024-01-10T03:01:27;12.95;;;7.70;;
26303;SDS011;70693;48.680;8.890;2024-01-10T03:03:53;11.40;;;6.63;;
26303;SDS011;70693;48.680;8.890;2024-01-10T03:06:19;13.43;;;7.45;;
26303;SDS011;70693;48.680;8.890;2024-01-10T03:08:44;14.48;;;7.75;;
26303;SDS011;70693;48.680;8.890;2024-01-10T03:11:10;11.90;;;6.75;;
26303;SDS011;70693;48.680;8.890;2024-01-10T03:13:35;10.93;;;6.88;;
26303;SDS011;70693;48.680;8.890;2024-01-10T03:16:02;11.48;;;7.13;;
26303;SDS011;70693;48.680;8.890;2024-01-10T03:18:28;11.93;;;6.82;;
26303;SDS011;70693;48.680;8.890;2024-01-10T03:20:54;12.85;;;7.00;;
26303;SDS011;70693;48.680;8.890;2024-01-10T03:23:20;11.68;;;7.43;;
26303;SDS011;70693;48.680;8.890;2024-01-10T03:25:47;10.38;;;6.32;;
26303;SDS011;70693;48.680;8.890;2024-01-10T03:28:16;11.05;;;7.22;;
26303;SDS011;70693;48.680;8.890;2024-01-10T03:30:43;12.32;;;6.90;;
26303;SDS011;70693;48.680;8.890;2024-01-10T03:33:09;11.43;;;7.20;;
26303;SDS011;70693;48.680;8.890;2024-01-10T03:35:34;11.20;;;7.10;;
26303;SDS011;70693;48.680;8.890;2024-01-10T03:38:00;10.93;;;7.07;;
26303;SDS011;70693;48.680;8.890;2024-01-10T03:40:26;11.38;;;6.80;;
26303;SDS011;70693;48.680;8.890;2024-01-10T03:42:51;11.10;;;6.80;;
26303;SDS011;70693;48.680;8.890;2024-01-10T03:45:18;12.63;;;6.80;;
26303;SDS011;70693;48.680;8.890;2024-01-10T03:47:46;13.98;;;7.50;;
26303;SDS011;70693;48.680;8.890;2024-01-10T03:50:15;13.75;;;7.30;;
26303;SDS011;70693;48.680;8.890;2024-01-10T03:52:42;12.77;;;7.10;;
26303;SDS011;70693;48.680;8.890;2024-01-10T03:55:08;11.80;;;6.97;;
26303;SDS011;70693;48.680;8.890;2024-01-10T03:57:34;11.43;;;6.90;;
26303;SDS011;70693;48.680;8.890;2024-01-10T04:00:00;10.02;;;7.15;;
26303;SDS011;70693;48.680;8.890;2024-01-10T04:02:25;12.57;;;7.47;;
26303;SDS011;70693;48.680;8.890;2024-01-10T04:04:53;11.88;;;7.10;;
26303;SDS011;70693;48.680;8.890;2024-01-10T04:07:18;10.23;;;6.65;;
26303;SDS011;70693;48.680;8.890;2024-01-10T04:09:44;11.25;;;7.00;;
26303;SDS011;70693;48.680;8.890;2024-01-10T04:12:10;9.48;;;6.50;;
26303;SDS011;70693;48.680;8.890;2024-01-10T04:14:36;13.32;;;7.78;;
26303;SDS011;70693;48.680;8.890;2024-01-10T04:17:01;10.48;;;6.45;;
26303;SDS011;70693;48.680;8.890;2024-01-10T04:19:29;12.70;;;7.50;;
26303;SDS011;70693;48.680;8.890;2024-01-10T04:21:55;11.23;;;6.95;;
26303;SDS011;70693;48.680;8.890;2024-01-10T04:24:21;12.38;;;7.20;;
26303;SDS011;70693;48.680;8.890;2024-01-10T04:26:46;12.50;;;7.38;;
26303;SDS011;70693;48.680;8.890;2024-01-10T04:29:12;11.30;;;6.80;;
26303;SDS011;70693;48.680;8.890;2024-01-10T04:31:37;11.25;;;6.95;;
26303;SDS011;70693;48.680;8.890;2024-01-10T04:34:03;11.57;;;6.72;;
26303;SDS011;70693;48.680;8.890;2024-01-10T04:36:29;11.20;;;6.75;;
26303;SDS011;70693;48.680;8.890;2024-01-10T04:38:54;12.90;;;7.18;;
26303;SDS011;70693;48.680;8.890;2024-01-10T04:41:20;12.82;;;7.68;;
26303;SDS011;70693;48.680;8.890;2024-01-10T04:43:46;10.27;;;6.28;;
26303;SDS011;70693;48.680;8.890;2024-01-10T04:46:11;11.45;;;6.60;;
26303;SDS011;70693;48.680;8.890;2024-01-10T04:48:37;10.35;;;6.65;;
26303;SDS011;70693;48.680;8.890;2024-01-10T04:51:03;12.13;;;6.88;;
26303;SDS011;70693;48.680;8.890;2024-01-10T04:53:28;11.77;;;6.60;;
26303;SDS011;70693;48.680;8.890;2024-01-10T04:55:54;12.43;;;6.35;;
26303;SDS011;70693;48.680;8.890;2024-01-10T04:58:19;10.40;;;6.47;;
26303;SDS011;70693;48.680;8.890;2024-01-10T05:00:45;11.35;;;6.82;;
26303;SDS011;70693;48.680;8.890;2024-01-10T05:03:11;10.65;;;7.13;;
26303;SDS011;70693;48.680;8.890;2024-01-10T05:05:37;12.30;;;7.38;;
26303;SDS011;70693;48.680;8.890;2024-01-10T05:08:02;12.50;;;7.25;;
26303;SDS011;70693;48.680;8.890;2024-01-10T05:10:28;9.98;;;6.68;;
26303;SDS011;70693;48.680;8.890;2024-01-10T05:12:54;10.13;;;6.47;;
26303;SDS011;70693;48.680;8.890;2024-01-10T05:15:19;11.27;;;6.85;;
26303;SDS011;70693;48.680;8.890;2024-01-10T05:17:45;11.05;;;6.88;;
26303;SDS011;70693;48.680;8.890;2024-01-10T05:20:10;12.45;;;6.85;;
26303;SDS011;70693;48.680;8.890;2024-01-10T05:22:36;12.30;;;7.45;;
26303;SDS011;70693;48.680;8.890;2024-01-10T05:25:02;11.80;;;7.10;;
26303;SDS011;70693;48.680;8.890;2024-01-10T05:27:29;10.43;;;6.78;;
26303;SDS011;70693;48.680;8.890;2024-01-10T05:29:56;11.05;;;7.32;;
26303;SDS011;70693;48.680;8.890;2024-01-10T05:32:21;14.25;;;7.97;;
26303;SDS011;70693;48.680;8.890;2024-01-10T05:34:47;10.38;;;6.80;;
26303;SDS011;70693;48.680;8.890;2024-01-10T05:37:13;10.27;;;6.95;;
26303;SDS011;70693;48.680;8.890;2024-01-10T05:39:38;12.07;;;6.43;;
26303;SDS011;70693;48.680;8.890;2024-01-10T05:42:04;13.60;;;7.45;;
26303;SDS011;70693;48.680;8.890;2024-01-10T05:44:30;11.35;;;6.35;;
26303;SDS011;70693;48.680;8.890;2024-01-10T05:46:55;10.90;;;6.95;;
26303;SDS011;70693;48.680;8.890;2024-01-10T05:49:24;9.77;;;6.82;;
26303;SDS011;70693;48.680;8.890;2024-01-10T05:51:50;12.00;;;7.07;;
26303;SDS011;70693;48.680;8.890;2024-01-10T05:54:16;10.10;;;6.53;;
26303;SDS011;70693;48.680;8.890;2024-01-10T05:56:43;11.88;;;7.38;;
26303;SDS011;70693;48.680;8.890;2024-01-10T05:59:09;9.73;;;6.57;;
26303;SDS011;70693;48.680;8.890;2024-01-10T06:01:36;10.43;;;6.88;;
26303;SDS011;70693;48.680;8.890;2024-01-10T06:04:03;11.90;;;7.40;;
26303;SDS011;70693;48.680;8.890;2024-01-10T06:06:29;12.35;;;7.00;;
26303;SDS011;70693;48.680;8.890;2024-01-10T06:08:55;13.38;;;7.32;;
26303;SDS011;70693;48.680;8.890;2024-01-10T06:11:21;11.73;;;7.07;;
26303;SDS011;70693;48.680;8.890;2024-01-10T06:13:47;15.43;;;8.02;;
26303;SDS011;70693;48.680;8.890;2024-01-10T06:16:12;12.65;;;7.03;;
26303;SDS011;70693;48.680;8.890;2024-01-10T06:18:38;12.10;;;7.45;;
26303;SDS011;70693;48.680;8.890;2024-01-10T06:21:04;13.07;;;7.88;;
26303;SDS011;70693;48.680;8.890;2024-01-10T06:23:30;10.60;;;6.72;;
26303;SDS011;70693;48.680;8.890;2024-01-10T06:25:56;10.63;;;6.80;;
26303;SDS011;70693;48.680;8.890;2024-01-10T06:28:21;10.25;;;6.22;;
26303;SDS011;70693;48.680;8.890;2024-01-10T06:30:48;10.63;;;7.07;;
26303;SDS011;70693;48.680;8.890;2024-01-10T06:33:14;11.85;;;7.07;;
26303;SDS011;70693;48.680;8.890;2024-01-10T06:35:40;10.85;;;6.30;;
26303;SDS011;70693;48.680;8.890;2024-01-10T06:38:08;11.38;;;7.18;;
26303;SDS011;70693;48.680;8.890;2024-01-10T06:40:34;12.32;;;7.30;;
26303;SDS011;70693;48.680;8.890;2024-01-10T06:43:01;12.63;;;7.57;;
26303;SDS011;70693;48.680;8.890;2024-01-10T06:45:27;15.98;;;8.55;;
26303;SDS011;70693;48.680;8.890;2024-01-10T06:47:53;15.52;;;8.18;;
26303;SDS011;70693;48.680;8.890;2024-01-10T06:50:19;16.00;;;8.40;;
26303;SDS011;70693;48.680;8.890;2024-01-10T06:52:46;12.10;;;7.50;;
26303;SDS011;70693;48.680;8.890;2024-01-10T06:55:13;13.32;;;8.52;;
26303;SDS011;70693;48.680;8.890;2024-01-10T06:57:39;11.57;;;7.68;;
26303;SDS011;70693;48.680;8.890;2024-01-10T07:00:04;11.63;;;7.38;;
26303;SDS011;70693;48.680;8.890;2024-01-10T07:02:35;12.98;;;8.38;;
26303;SDS011;70693;48.680;8.890;2024-01-10T07:05:08;13.75;;;8.30;;
26303;SDS011;70693;48.680;8.890;2024-01-10T07:07:34;13.43;;;8.07;;
26303;SDS011;70693;48.680;8.890;2024-01-10T07:10:00;11.95;;;7.82;;
26303;SDS011;70693;48.680;8.890;2024-01-10T07:12:30;13.73;;;8.05;;
26303;SDS011;70693;48.680;8.890;2024-01-10T07:14:56;12.70;;;7.68;;
26303;SDS011;70693;48.680;8.890;2024-01-10T07:17:22;14.27;;;7.82;;
26303;SDS011;70693;48.680;8.890;2024-01-10T07:19:48;14.90;;;8.73;;
26303;SDS011;70693;48.680;8.890;2024-01-10T07:22:13;14.10;;;7.82;;
26303;SDS011;70693;48.680;8.890;2024-01-10T07:24:39;11.35;;;7.55;;
26303;SDS011;70693;48.680;8.890;2024-01-10T07:27:05;13.85;;;7.53;;
26303;SDS011;70693;48.680;8.890;2024-01-10T07:29:32;14.80;;;8.07;;
26303;SDS011;70693;48.680;8.890;2024-01-10T07:31:59;14.40;;;8.13;;
26303;SDS011;70693;48.680;8.890;2024-01-10T07:34:25;11.25;;;7.28;;
26303;SDS011;70693;48.680;8.890;2024-01-10T07:36:50;10.25;;;7.20;;
26303;SDS011;70693;48.680;8.890;2024-01-10T07:39:16;12.48;;;7.47;;
26303;SDS011;70693;48.680;8.890;2024-01-10T07:41:43;12.60;;;7.90;;
26303;SDS011;70693;48.680;8.890;2024-01-10T07:44:09;15.40;;;7.82;;
26303;SDS011;70693;48.680;8.890;2024-01-10T07:46:35;12.40;;;7.15;;
26303;SDS011;70693;48.680;8.890;2024-01-10T07:49:03;11.88;;;7.28;;
26303;SDS011;70693;48.680;8.890;2024-01-10T07:51:30;11.07;;;7.35;;
26303;SDS011;70693;48.680;8.890;2024-01-10T07:53:55;12.70;;;7.35;;
26303;SDS011;70693;48.680;8.890;2024-01-10T07:56:21;12.95;;;7.53;;
26303;SDS011;70693;48.680;8.890;2024-01-10T07:58:47;12.70;;;7.75;;
26303;SDS011;70693;48.680;8.890;2024-01-10T08:01:14;12.85;;;8.20;;
26303;SDS011;70693;48.680;8.890;2024-01-10T08:03:40;12.65;;;7.63;;
26303;SDS011;70693;48.680;8.890;2024-01-10T08:06:06;11.65;;;7.00;;
26303;SDS011;70693;48.680;8.890;2024-01-10T08:08:32;12.65;;;7.30;;
26303;SDS011;70693;48.680;8.890;2024-01-10T08:10:57;12.02;;;7.38;;
26303;SDS011;70693;48.680;8.890;2024-01-10T08:13:23;11.77;;;7.35;;
26303;SDS011;70693;48.680;8.890;2024-01-10T08:15:49;11.98;;;7.35;;
26303;SDS011;70693;48.680;8.890;2024-01-10T08:18:15;11.73;;;7.32;;
26303;SDS011;70693;48.680;8.890;2024-01-10T08:20:41;13.65;;;7.43;;
26303;SDS011;70693;48.680;8.890;2024-01-10T08:23:07;11.73;;;6.90;;
26303;SDS011;70693;48.680;8.890;2024-01-10T08:25:33;13.77;;;8.90;;
26303;SDS011;70693;48.680;8.890;2024-01-10T08:27:58;14.15;;;8.80;;
26303;SDS011;70693;48.680;8.890;2024-01-10T08:30:24;15.38;;;8.48;;
26303;SDS011;70693;48.680;8.890;2024-01-10T08:32:50;14.48;;;8.57;;
26303;SDS011;70693;48.680;8.890;2024-01-10T08:35:15;13.02;;;8.70;;
26303;SDS011;70693;48.680;8.890;2024-01-10T08:37:41;15.18;;;9.13;;
26303;SDS011;70693;48.680;8.890;2024-01-10T08:40:11;16.05;;;8.85;;
26303;SDS011;70693;48.680;8.890;2024-01-10T08:42:39;14.18;;;8.00;;
26303;SDS011;70693;48.680;8.890;2024-01-10T08:45:06;13.60;;;8.52;;
26303;SDS011;70693;48.680;8.890;2024-01-10T08:47:34;14.00;;;8.70;;
26303;SDS011;70693;48.680;8.890;2024-01-10T08:50:01;11.93;;;7.68;;
26303;SDS011;70693;48.680;8.890;2024-01-10T08:52:29;13.98;;;7.47;;
26303;SDS011;70693;48.680;8.890;2024-01-10T08:54:56;11.27;;;7.60;;
26303;SDS011;70693;48.680;8.890;2024-01-10T08:57:21;11.88;;;7.55;;
26303;SDS011;70693;48.680;8.890;2024-01-10T08:59:47;10.82;;;7.35;;
26303;SDS011;70693;48.680;8.890;2024-01-10T09:02:13;13.73;;;7.82;;
26303;SDS011;70693;48.680;8.890;2024-01-10T09:04:39;12.35;;;7.68;;
26303;SDS011;70693;48.680;8.890;2024-01-10T09:07:05;12.00;;;6.53;;
26303;SDS011;70693;48.680;8.890;2024-01-10T09:09:32;11.10;;;7.50;;
26303;SDS011;70693;48.680;8.890;2024-01-10T09:11:57;11.52;;;7.35;;
26303;SDS011;70693;48.680;8.890;2024-01-10T09:14:23;13.30;;;7.38;;
26303;SDS011;70693;48.680;8.890;2024-01-10T09:16:49;10.43;;;7.03;;
26303;SDS011;70693;48.680;8.890;2024-01-10T09:19:14;13.75;;;7.90;;
26303;SDS011;70693;48.680;8.890;2024-01-10T09:21:40;12.32;;;7.63;;
26303;SDS011;70693;48.680;8.890;2024-01-10T09:24:05;12.18;;;6.93;;
26303;SDS011;70693;48.680;8.890;2024-01-10T09:26:34;11.82;;;7.72;;
26303;SDS011;70693;48.680;8.890;2024-01-10T09:28:59;11.48;;;7.45;;
26303;SDS011;70693;48.680;8.890;2024-01-10T09:31:25;11.30;;;6.85;;
26303;SDS011;70693;48.680;8.890;2024-01-10T09:33:50;11.02;;;7.10;;
26303;SDS011;70693;48.680;8.890;2024-01-10T09:36:16;12.82;;;7.50;;
26303;SDS011;70693;48.680;8.890;2024-01-10T09:38:42;12.48;;;7.40;;
26303;SDS011;70693;48.680;8.890;2024-01-10T09:41:07;11.30;;;6.80;;
26303;SDS011;70693;48.680;8.890;2024-01-10T09:43:36;11.73;;;7.22;;
26303;SDS011;70693;48.680;8.890;2024-01-10T09:46:01;12.13;;;7.22;;
26303;SDS011;70693;48.680;8.890;2024-01-10T09:48:27;10.52;;;7.28;;
26303;SDS011;70693;48.680;8.890;2024-01-10T09:50:54;10.27;;;6.95;;
26303;SDS011;70693;48.680;8.890;2024-01-10T09:53:27;10.10;;;6.93;;
26303;SDS011;70693;48.680;8.890;2024-01-10T09:55:56;10.40;;;7.35;;
26303;SDS011;70693;48.680;8.890;2024-01-10T09:58:24;12.23;;;7.13;;
26303;SDS011;70693;48.680;8.890;2024-01-10T10:00:53;11.23;;;7.15;;
26303;SDS011;70693;48.680;8.890;2024-01-10T10:03:18;13.00;;;7.40;;
26303;SDS011;70693;48.680;8.890;2024-01-10T10:05:44;11.85;;;7.60;;
26303;SDS011;70693;48.680;8.890;2024-01-10T10:08:11;11.85;;;7.38;;
26303;SDS011;70693;48.680;8.890;2024-01-10T10:10:40;10.85;;;7.10;;
26303;SDS011;70693;48.680;8.890;2024-01-10T10:13:08;10.85;;;7.38;;
26303;SDS011;70693;48.680;8.890;2024-01-10T10:15:37;10.40;;;7.15;;
26303;SDS011;70693;48.680;8.890;2024-01-10T10:18:03;13.60;;;7.90;;
26303;SDS011;70693;48.680;8.890;2024-01-10T10:20:30;12.77;;;7.10;;
26303;SDS011;70693;48.680;8.890;2024-01-10T10:23:07;11.10;;;7.68;;
26303;SDS011;70693;48.680;8.890;2024-01-10T10:25:43;11.63;;;7.43;;
26303;SDS011;70693;48.680;8.890;2024-01-10T10:28:10;11.38;;;7.43;;
26303;SDS011;70693;48.680;8.890;2024-01-10T10:30:36;9.82;;;7.10;;
26303;SDS011;70693;48.680;8.890;2024-01-10T10:33:02;9.70;;;6.55;;
26303;SDS011;70693;48.680;8.890;2024-01-10T10:35:28;9.68;;;6.93;;
26303;SDS011;70693;48.680;8.890;2024-01-10T10:37:54;10.13;;;6.82;;
26303;SDS011;70693;48.680;8.890;2024-01-10T10:40:21;12.27;;;7.55;;
26303;SDS011;70693;48.680;8.890;2024-01-10T10:42:54;11.57;;;7.57;;
26303;SDS011;70693;48.680;8.890;2024-01-10T10:45:21;10.93;;;7.30;;
26303;SDS011;70693;48.680;8.890;2024-01-10T10:48:00;11.30;;;6.90;;
26303;SDS011;70693;48.680;8.890;2024-01-10T10:50:33;12.07;;;7.57;;
26303;SDS011;70693;48.680;8.890;2024-01-10T10:53:00;10.70;;;7.40;;
26303;SDS011;70693;48.680;8.890;2024-01-10T10:55:28;12.18;;;7.68;;
26303;SDS011;70693;48.680;8.890;2024-01-10T10:57:54;12.23;;;7.80;;
26303;SDS011;70693;48.680;8.890;2024-01-10T11:00:21;11.13;;;7.22;;
26303;SDS011;70693;48.680;8.890;2024-01-10T11:02:52;10.57;;;6.97;;
26303;SDS011;70693;48.680;8.890;2024-01-10T11:05:18;12.30;;;7.00;;
26303;SDS011;70693;48.680;8.890;2024-01-10T11:07:45;10.00;;;6.80;;
26303;SDS011;70693;48.680;8.890;2024-01-10T11:10:19;9.23;;;6.57;;
26303;SDS011;70693;48.680;8.890;2024-01-10T11:21:47;11.45;;;8.18;;
26303;SDS011;70693;48.680;8.890;2024-01-10T11:24:00;11.00;;;7.65;;
26303;SDS011;70693;48.680;8.890;2024-01-10T11:26:26;10.65;;;7.00;;
26303;SDS011;70693;48.680;8.890;2024-01-10T11:28:52;11.38;;;7.72;;
26303;SDS011;70693;48.680;8.890;2024-01-10T11:31:28;10.73;;;7.75;;
26303;SDS011;70693;48.680;8.890;2024-01-10T11:33:56;11.43;;;7.32;;
26303;SDS011;70693;48.680;8.890;2024-01-10T11:36:26;14.93;;;10.40;;
26303;SDS011;70693;48.680;8.890;2024-01-10T11:41:25;18.05;;;12.05;;
26303;SDS011;70693;48.680;8.890;2024-01-10T11:46:41;18.05;;;11.30;;
26303;SDS011;70693;48.680;8.890;2024-01-10T11:49:11;18.17;;;11.88;;
26303;SDS011;70693;48.680;8.890;2024-01-10T11:51:41;17.10;;;11.73;;
26303;SDS011;70693;48.680;8.890;2024-01-10T11:54:07;16.75;;;11.68;;
26303;SDS011;70693;48.680;8.890;2024-01-10T11:59:07;15.93;;;11.37;;
26303;SDS011;70693;48.680;8.890;2024-01-10T12:01:36;17.88;;;11.38;;
26303;SDS011;70693;48.680;8.890;2024-01-10T12:04:06;15.63;;;11.25;;
26303;SDS011;70693;48.680;8.890;2024-01-10T12:06:33;18.33;;;11.32;;
26303;SDS011;70693;48.680;8.890;2024-01-10T12:09:04;16.63;;;11.18;;
26303;SDS011;70693;48.680;8.890;2024-01-10T12:11:39;16.65;;;11.57;;
26303;SDS011;70693;48.680;8.890;2024-01-10T12:14:06;16.98;;;11.50;;
26303;SDS011;70693;48.680;8.890;2024-01-10T12:16:33;17.23;;;10.85;;
26303;SDS011;70693;48.680;8.890;2024-01-10T12:18:59;14.52;;;10.52;;
26303;SDS011;70693;48.680;8.890;2024-01-10T12:21:25;15.65;;;10.35;;
26303;SDS011;70693;48.680;8.890;2024-01-10T12:23:50;15.73;;;10.98;;
26303;SDS011;70693;48.680;8.890;2024-01-10T12:26:19;15.75;;;11.10;;
26303;SDS011;70693;48.680;8.890;2024-01-10T12:28:57;14.10;;;10.18;;
26303;SDS011;70693;48.680;8.890;2024-01-10T12:31:24;14.50;;;9.95;;
26303;SDS011;70693;48.680;8.890;2024-01-10T12:33:52;15.18;;;10.30;;
26303;SDS011;70693;48.680;8.890;2024-01-10T12:36:20;14.93;;;10.55;;
26303;SDS011;70693;48.680;8.890;2024-01-10T12:38:46;14.35;;;9.57;;
26303;SDS011;70693;48.680;8.890;2024-01-10T12:41:13;14.57;;;9.80;;
26303;SDS011;70693;48.680;8.890;2024-01-10T12:43:40;15.80;;;9.82;;
26303;SDS011;70693;48.680;8.890;2024-01-10T12:46:06;15.43;;;10.13;;
26303;SDS011;70693;48.680;8.890;2024-01-10T12:48:33;14.52;;;10.18;;
26303;SDS011;70693;48.680;8.890;2024-01-10T12:51:02;15.75;;;10.07;;
26303;SDS011;70693;48.680;8.890;2024-01-10T12:53:39;15.75;;;9.90;;
26303;SDS011;70693;48.680;8.890;2024-01-10T12:56:07;20.77;;;13.50;;
26303;SDS011;70693;48.680;8.890;2024-01-10T12:58:34;19.65;;;13.68;;
26303;SDS011;70693;48.680;8.890;2024-01-10T13:01:04;20.35;;;13.93;;
26303;SDS011;70693;48.680;8.890;2024-01-10T13:03:29;19.38;;;13.32;;
26303;SDS011;70693;48.680;8.890;2024-01-10T13:05:55;22.45;;;13.25;;
26303;SDS011;70693;48.680;8.890;2024-01-10T13:08:21;20.05;;;14.02;;
26303;SDS011;70693;48.680;8.890;2024-01-10T13:10:47;17.73;;;12.45;;
26303;SDS011;70693;48.680;8.890;2024-01-10T13:13:13;21.00;;;13.95;;
26303;SDS011;70693;48.680;8.890;2024-01-10T13:15:39;17.90;;;12.65;;
26303;SDS011;70693;48.680;8.890;2024-01-10T13:18:05;20.50;;;13.07;;
26303;SDS011;70693;48.680;8.890;2024-01-10T13:20:32;20.70;;;12.70;;
26303;SDS011;70693;48.680;8.890;2024-01-10T13:22:57;18.60;;;12.00;;
26303;SDS011;70693;48.680;8.890;2024-01-10T13:25:23;18.02;;;12.48;;
26303;SDS011;70693;48.680;8.890;2024-01-10T13:27:51;17.98;;;12.10;;
26303;SDS011;70693;48.680;8.890;2024-01-10T13:30:17;17.77;;;12.35;;
26303;SDS011;70693;48.680;8.890;2024-01-10T13:32:44;16.63;;;12.00;;
26303;SDS011;70693;48.680;8.890;2024-01-10T13:35:11;18.02;;;12.20;;
26303;SDS011;70693;48.680;8.890;2024-01-10T13:37:41;17.38;;;12.27;;
26303;SDS011;70693;48.680;8.890;2024-01-10T13:40:08;17.70;;;11.63;;
26303;SDS011;70693;48.680;8.890;2024-01-10T13:42:38;18.45;;;12.02;;
26303;SDS011;70693;48.680;8.890;2024-01-10T13:45:07;16.02;;;11.35;;
26303;SDS011;70693;48.680;8.890;2024-01-10T13:47:37;15.93;;;10.77;;
26303;SDS011;70693;48.680;8.890;2024-01-10T13:50:03;18.83;;;11.65;;
26303;SDS011;70693;48.680;8.890;2024-01-10T13:52:32;18.77;;;11.05;;
26303;SDS011;70693;48.680;8.890;2024-01-10T13:54:59;15.88;;;11.38;;
26303;SDS011;70693;48.680;8.890;2024-01-10T13:57:25;15.60;;;11.38;;
26303;SDS011;70693;48.680;8.890;2024-01-10T13:59:51;15.60;;;10.57;;
26303;SDS011;70693;48.680;8.890;2024-01-10T14:02:20;18.08;;;10.63;;
26303;SDS011;70693;48.680;8.890;2024-01-10T14:04:49;15.90;;;10.65;;
26303;SDS011;70693;48.680;8.890;2024-01-10T14:07:17;16.65;;;10.95;;
26303;SDS011;70693;48.680;8.890;2024-01-10T14:09:42;15.68;;;10.10;;
26303;SDS011;70693;48.680;8.890;2024-01-10T14:12:08;19.23;;;11.25;;
26303;SDS011;70693;48.680;8.890;2024-01-10T14:14:34;18.00;;;10.95;;
26303;SDS011;70693;48.680;8.890;2024-01-10T14:17:00;15.75;;;10.45;;
26303;SDS011;70693;48.680;8.890;2024-01-10T14:19:25;16.05;;;10.50;;
26303;SDS011;70693;48.680;8.890;2024-01-10T14:21:51;14.68;;;10.52;;
26303;SDS011;70693;48.680;8.890;2024-01-10T14:24:17;16.02;;;10.40;;
26303;SDS011;70693;48.680;8.890;2024-01-10T14:26:43;16.17;;;10.27;;
26303;SDS011;70693;48.680;8.890;2024-01-10T14:29:09;15.07;;;10.20;;
26303;SDS011;70693;48.680;8.890;2024-01-10T14:31:35;15.73;;;10.43;;
26303;SDS011;70693;48.680;8.890;2024-01-10T14:34:01;13.48;;;9.68;;
26303;SDS011;70693;48.680;8.890;2024-01-10T14:36:27;16.17;;;10.70;;
26303;SDS011;70693;48.680;8.890;2024-01-10T14:38:52;14.20;;;10.18;;
26303;SDS011;70693;48.680;8.890;2024-01-10T14:41:20;14.30;;;9.90;;
26303;SDS011;70693;48.680;8.890;2024-01-10T14:43:45;14.90;;;10.10;;
26303;SDS011;70693;48.680;8.890;2024-01-10T14:46:11;14.43;;;9.98;;